createdAt,value
2022-08-22T00:01:17.827Z,23.40
2022-08-22T00:04:04.696Z,23.50
2022-08-22T00:06:58.783Z,23.50
2022-08-22T00:09:27.227Z,23.60
2022-08-22T00:12:14.029Z,23.70
2022-08-22T00:14:59.543Z,23.30
2022-08-22T00:17:33.431Z,22.80
2022-08-22T00:20:13.933Z,22.60
2022-08-22T00:22:59.225Z,22.30
2022-08-22T00:26:06.673Z,22.30
2022-08-22T00:29:00.339Z,22.60
2022-08-22T00:31:34.652Z,23.00
2022-08-22T00:34:10.311Z,23.20
2022-08-22T00:37:11.939Z,23.30
2022-08-22T00:39:53.480Z,23.30
2022-08-22T00:42:36.626Z,23.40
2022-08-22T00:45:30.116Z,23.50
2022-08-22T00:48:27.685Z,23.60
2022-08-22T00:51:33.615Z,23.60
2022-08-22T00:54:01.845Z,23.60
2022-08-22T00:56:52.508Z,23.10
2022-08-22T00:59:26.668Z,22.70
2022-08-22T01:02:02.170Z,22.50
2022-08-22T01:05:04.016Z,22.30
2022-08-22T01:08:00.397Z,22.50
2022-08-22T01:10:41.022Z,22.90
2022-08-22T01:13:46.916Z,23.10
2022-08-22T01:16:27.864Z,23.30
2022-08-22T01:19:30.111Z,23.30
2022-08-22T01:22:29.317Z,23.40
2022-08-22T01:25:39.255Z,23.50
2022-08-22T01:28:32.129Z,23.60
2022-08-22T01:31:35.563Z,23.70
2022-08-22T01:34:28.363Z,23.60
2022-08-22T01:37:08.886Z,23.00
2022-08-22T01:40:10.627Z,22.70
2022-08-22T01:42:57.271Z,22.40
2022-08-22T01:46:04.977Z,22.20
2022-08-22T01:48:46.087Z,22.10
2022-08-22T01:51:27.162Z,22.30
2022-08-22T01:54:26.254Z,22.70
2022-08-22T01:57:03.799Z,22.90
2022-08-22T01:59:42.364Z,23.10
2022-08-22T02:02:17.896Z,23.20
2022-08-22T02:05:00.217Z,23.30
2022-08-22T02:07:49.999Z,23.30
2022-08-22T02:11:03.199Z,23.50
2022-08-22T02:13:42.686Z,23.50
2022-08-22T02:16:32.376Z,23.60
2022-08-22T02:19:03.660Z,23.60
2022-08-22T02:21:40.888Z,23.40
2022-08-22T02:24:33.383Z,22.90
2022-08-22T02:27:17.955Z,22.60
2022-08-22T02:30:02.495Z,22.40
2022-08-22T02:32:41.592Z,22.10
2022-08-22T02:35:40.848Z,22.10
2022-08-22T02:39:05.868Z,22.50
2022-08-22T02:42:06.021Z,22.80
2022-08-22T02:44:42.039Z,23.00
2022-08-22T02:47:22.986Z,23.10
2022-08-22T02:50:19.786Z,23.20
2022-08-22T02:52:51.351Z,23.30
2022-08-22T02:55:37.319Z,23.40
2022-08-22T02:58:36.122Z,23.50
2022-08-22T03:01:04.435Z,23.50
2022-08-22T03:03:40.279Z,23.60
2022-08-22T03:06:35.326Z,23.60
2022-08-22T03:09:16.619Z,23.10
2022-08-22T03:11:49.254Z,22.70
2022-08-22T03:14:21.856Z,22.40
2022-08-22T03:17:02.242Z,22.30
2022-08-22T03:19:53.555Z,22.30
2022-08-22T03:22:29.386Z,22.70
2022-08-22T03:25:18.424Z,22.90
2022-08-22T03:28:03.262Z,23.10
2022-08-22T03:30:57.054Z,23.30
2022-08-22T03:33:31.416Z,23.30
2022-08-22T03:36:09.225Z,23.40
2022-08-22T03:38:37.437Z,23.50
2022-08-22T03:41:11.554Z,23.50
2022-08-22T03:44:12.258Z,23.60
2022-08-22T03:47:00.611Z,23.60
2022-08-22T03:49:46.855Z,23.60
2022-08-22T03:52:18.208Z,23.20
2022-08-22T03:54:52.366Z,22.80
2022-08-22T03:57:52.968Z,22.50
2022-08-22T04:00:59.625Z,22.30
2022-08-22T04:04:16.721Z,22.70
2022-08-22T04:07:32.148Z,22.90
2022-08-22T04:10:46.030Z,23.10
2022-08-22T04:13:32.701Z,23.30
2022-08-22T04:16:37.894Z,23.40
2022-08-22T04:19:35.805Z,23.50
2022-08-22T04:22:41.088Z,23.50
2022-08-22T04:25:27.865Z,23.60
2022-08-22T04:28:19.441Z,23.60
2022-08-22T04:31:01.530Z,23.70
2022-08-22T04:34:06.058Z,23.20
2022-08-22T04:36:40.169Z,22.80
2022-08-22T04:39:08.333Z,22.50
2022-08-22T04:42:31.334Z,22.30
2022-08-22T04:45:09.606Z,22.40
2022-08-22T04:47:42.039Z,22.80
2022-08-22T04:50:43.344Z,23.00
2022-08-22T04:53:33.034Z,23.10
2022-08-22T04:56:32.019Z,23.30
2022-08-22T04:59:09.758Z,23.40
2022-08-22T05:01:44.843Z,23.40
2022-08-22T05:04:21.856Z,23.50
2022-08-22T05:07:09.035Z,23.50
2022-08-22T05:09:41.619Z,23.60
2022-08-22T05:12:15.372Z,23.60
2022-08-22T05:14:57.796Z,23.30
2022-08-22T05:17:30.137Z,22.80
2022-08-22T05:20:05.407Z,22.60
2022-08-22T05:22:41.148Z,22.30
2022-08-22T05:25:21.319Z,22.50
2022-08-22T05:27:55.422Z,22.80
2022-08-22T05:30:30.630Z,23.00
2022-08-22T05:33:05.893Z,23.20
2022-08-22T05:35:44.971Z,23.30
2022-08-22T05:38:20.984Z,23.30
2022-08-22T05:41:00.616Z,23.50
2022-08-22T05:43:29.217Z,23.50
2022-08-22T05:45:59.202Z,23.50
2022-08-22T05:48:43.564Z,23.60
2022-08-22T05:51:14.947Z,23.60
2022-08-22T05:53:48.985Z,23.60
2022-08-22T05:56:36.458Z,23.20
2022-08-22T05:59:14.502Z,22.70
2022-08-22T06:02:31.784Z,22.50
2022-08-22T06:05:05.006Z,22.70
2022-08-22T06:07:40.815Z,23.00
2022-08-22T06:10:30.342Z,23.20
2022-08-22T06:13:04.374Z,23.30
2022-08-22T06:16:01.395Z,23.30
2022-08-22T06:18:32.094Z,23.40
2022-08-22T06:21:07.941Z,23.60
2022-08-22T06:23:53.331Z,23.60
2022-08-22T06:26:22.174Z,23.60
2022-08-22T06:28:55.333Z,23.70
2022-08-22T06:31:30.137Z,23.50
2022-08-22T06:34:06.598Z,23.00
2022-08-22T06:36:38.813Z,22.70
2022-08-22T06:39:10.263Z,22.50
2022-08-22T06:42:02.873Z,22.70
2022-08-22T06:44:41.238Z,23.00
2022-08-22T06:47:16.924Z,23.20
2022-08-22T06:49:45.822Z,23.30
2022-08-22T06:52:20.186Z,23.40
2022-08-22T06:54:51.839Z,23.50
2022-08-22T06:57:45.868Z,23.50
2022-08-22T07:00:17.355Z,23.60
2022-08-22T07:02:53.804Z,23.60
2022-08-22T07:05:24.952Z,23.60
2022-08-22T07:07:53.590Z,23.70
2022-08-22T07:10:23.573Z,23.70
2022-08-22T07:12:54.599Z,23.60
2022-08-22T07:15:37.628Z,23.20
2022-08-22T07:18:18.579Z,22.80
2022-08-22T07:20:55.183Z,22.60
2022-08-22T07:23:42.468Z,22.80
2022-08-22T07:26:28.957Z,23.20
2022-08-22T07:29:29.230Z,23.40
2022-08-22T07:32:25.181Z,23.40
2022-08-22T07:35:18.954Z,23.60
2022-08-22T07:38:08.984Z,23.70
2022-08-22T07:40:56.875Z,23.70
2022-08-22T07:43:34.396Z,23.80
2022-08-22T07:46:08.856Z,23.70
2022-08-22T07:49:08.117Z,23.30
2022-08-22T07:51:44.890Z,22.90
2022-08-22T07:54:17.733Z,22.60
2022-08-22T07:57:00.076Z,22.40
2022-08-22T07:59:30.955Z,22.70
2022-08-22T08:02:01.146Z,23.00
2022-08-22T08:04:40.035Z,23.20
2022-08-22T08:07:11.987Z,23.30
2022-08-22T08:09:46.791Z,23.50
2022-08-22T08:12:16.618Z,23.50
2022-08-22T08:14:46.575Z,23.60
2022-08-22T08:17:28.776Z,23.60
2022-08-22T08:20:06.669Z,23.70
2022-08-22T08:22:36.018Z,23.70
2022-08-22T08:25:06.427Z,23.30
2022-08-22T08:27:39.503Z,22.90
2022-08-22T08:30:44.906Z,22.70
2022-08-22T08:33:25.296Z,22.40
2022-08-22T08:36:13.755Z,22.30
2022-08-22T08:38:48.716Z,22.60
2022-08-22T08:41:36.992Z,22.90
2022-08-22T08:44:33.132Z,23.20
2022-08-22T08:47:07.477Z,23.30
2022-08-22T08:49:50.507Z,23.40
2022-08-22T08:52:45.261Z,23.50
2022-08-22T08:55:25.986Z,23.50
2022-08-22T08:58:06.752Z,23.60
2022-08-22T09:01:06.334Z,23.60
2022-08-22T09:03:51.406Z,23.70
2022-08-22T09:06:56.657Z,23.80
2022-08-22T09:09:52.357Z,23.50
2022-08-22T09:12:43.457Z,23.00
2022-08-22T09:15:41.222Z,22.70
2022-08-22T09:19:02.759Z,22.40
2022-08-22T09:21:49.422Z,22.50
2022-08-22T09:24:47.544Z,22.90
2022-08-22T09:27:55.503Z,23.20
2022-08-22T09:30:28.613Z,23.30
2022-08-22T09:33:25.407Z,23.40
2022-08-22T09:36:02.773Z,23.50
2022-08-22T09:38:55.573Z,23.60
2022-08-22T09:41:46.404Z,23.60
2022-08-22T09:44:32.325Z,23.60
2022-08-22T09:47:24.622Z,23.20
2022-08-22T09:50:22.961Z,22.80
2022-08-22T09:53:06.792Z,22.60
2022-08-22T09:55:43.947Z,22.40
2022-08-22T09:58:40.758Z,22.30
2022-08-22T10:01:25.695Z,22.70
2022-08-22T10:04:28.760Z,23.00
2022-08-22T10:07:11.220Z,23.20
2022-08-22T10:10:06.770Z,23.30
2022-08-22T10:12:52.388Z,23.40
2022-08-22T10:15:33.956Z,23.50
2022-08-22T10:18:32.266Z,23.60
2022-08-22T10:21:06.866Z,23.70
2022-08-22T10:24:07.004Z,23.60
2022-08-22T10:26:57.488Z,23.10
2022-08-22T10:30:03.249Z,22.80
2022-08-22T10:33:12.280Z,22.60
2022-08-22T10:35:56.174Z,22.40
2022-08-22T10:38:27.012Z,22.30
2022-08-22T10:41:08.809Z,22.30
2022-08-22T10:43:46.407Z,22.20
2022-08-22T10:46:20.551Z,22.50
2022-08-22T10:49:00.601Z,22.80
2022-08-22T10:51:46.877Z,23.00
2022-08-22T10:54:51.694Z,23.10
2022-08-22T10:57:36.573Z,23.30
2022-08-22T11:00:05.190Z,23.40
2022-08-22T11:02:53.178Z,23.50
2022-08-22T11:05:39.756Z,23.50
2022-08-22T11:08:45.685Z,23.60
2022-08-22T11:11:32.873Z,23.30
2022-08-22T11:14:19.715Z,23.00
2022-08-22T11:17:28.273Z,22.70
2022-08-22T11:20:06.915Z,22.50
2022-08-22T11:23:04.499Z,22.40
2022-08-22T11:25:39.203Z,22.40
2022-08-22T11:28:29.479Z,22.30
2022-08-22T11:31:23.420Z,22.20
2022-08-22T11:34:10.275Z,22.20
2022-08-22T11:36:57.375Z,22.10
2022-08-22T11:39:41.668Z,22.00
2022-08-22T11:42:13.160Z,22.00
2022-08-22T11:44:58.101Z,22.00
2022-08-22T11:47:36.619Z,21.90
2022-08-22T11:50:44.926Z,21.90
2022-08-22T11:54:07.716Z,21.90
2022-08-22T11:56:43.354Z,22.20
2022-08-22T11:59:27.911Z,22.60
2022-08-22T12:02:03.860Z,22.80
2022-08-22T12:04:44.077Z,23.00
2022-08-22T12:07:27.134Z,23.10
2022-08-22T12:10:16.835Z,23.20
2022-08-22T12:13:17.229Z,23.30
2022-08-22T12:16:24.899Z,23.30
2022-08-22T12:19:04.930Z,23.40
2022-08-22T12:21:56.161Z,23.10
2022-08-22T12:24:45.339Z,22.80
2022-08-22T12:27:34.827Z,22.60
2022-08-22T12:30:03.044Z,22.40
2022-08-22T12:33:06.460Z,22.40
2022-08-22T12:35:37.749Z,22.30
2022-08-22T12:38:29.099Z,22.20
2022-08-22T12:41:08.128Z,22.20
2022-08-22T12:44:17.112Z,22.20
2022-08-22T12:46:55.282Z,22.10
2022-08-22T12:49:50.012Z,22.10
2022-08-22T12:52:53.196Z,22.00
2022-08-22T12:55:22.366Z,22.00
2022-08-22T12:58:34.066Z,22.00
2022-08-22T13:01:07.560Z,22.40
2022-08-22T13:03:50.945Z,22.70
2022-08-22T13:06:48.674Z,22.90
2022-08-22T13:09:28.593Z,23.00
2022-08-22T13:12:21.380Z,23.10
2022-08-22T13:14:57.326Z,23.20
2022-08-22T13:17:28.464Z,23.30
2022-08-22T13:20:09.561Z,23.40
2022-08-22T13:22:45.615Z,23.50
2022-08-22T13:25:28.309Z,23.50
2022-08-22T13:28:05.024Z,23.20
2022-08-22T13:30:43.724Z,22.90
2022-08-22T13:33:14.810Z,22.70
2022-08-22T13:36:03.876Z,22.60
2022-08-22T13:38:46.369Z,22.40
2022-08-22T13:41:32.163Z,22.30
2022-08-22T13:44:18.450Z,22.20
2022-08-22T13:47:13.099Z,22.20
2022-08-22T13:49:41.701Z,22.10
2022-08-22T13:52:29.097Z,22.10
2022-08-22T13:55:43.074Z,22.00
2022-08-22T13:58:29.373Z,22.00
2022-08-22T14:01:09.450Z,22.40
2022-08-22T14:04:28.549Z,22.70
2022-08-22T14:07:04.501Z,23.00
2022-08-22T14:09:42.967Z,23.10
2022-08-22T14:12:16.918Z,23.20
2022-08-22T14:14:48.971Z,23.30
2022-08-22T14:17:24.466Z,23.30
2022-08-22T14:20:01.485Z,23.40
2022-08-22T14:22:35.375Z,23.50
2022-08-22T14:25:09.577Z,23.60
2022-08-22T14:28:01.060Z,23.50
2022-08-22T14:31:00.931Z,23.10
2022-08-22T14:33:56.499Z,22.80
2022-08-22T14:36:48.461Z,22.60
2022-08-22T14:39:28.509Z,22.50
2022-08-22T14:42:22.584Z,22.40
2022-08-22T14:45:14.159Z,22.30
2022-08-22T14:48:29.595Z,22.20
2022-08-22T14:51:18.945Z,22.10
2022-08-22T14:53:50.586Z,22.10
2022-08-22T14:56:27.095Z,22.10
2022-08-22T14:59:01.192Z,22.00
2022-08-22T15:01:37.402Z,22.00
2022-08-22T15:04:16.520Z,22.00
2022-08-22T15:07:08.982Z,21.90
2022-08-22T15:09:52.634Z,21.80
2022-08-22T15:12:40.871Z,21.80
2022-08-22T15:15:15.184Z,21.80
2022-08-22T15:17:50.854Z,22.00
2022-08-22T15:20:27.737Z,22.30
2022-08-22T15:23:23.884Z,22.60
2022-08-22T15:26:13.332Z,22.80
2022-08-22T15:28:53.037Z,23.00
2022-08-22T15:31:22.870Z,23.10
2022-08-22T15:34:04.682Z,23.20
2022-08-22T15:36:33.465Z,23.20
2022-08-22T15:39:32.572Z,23.30
2022-08-22T15:42:03.477Z,23.40
2022-08-22T15:44:38.887Z,23.40
2022-08-22T15:47:29.442Z,23.10
2022-08-22T15:50:14.682Z,22.80
2022-08-22T15:53:18.422Z,22.70
2022-08-22T15:56:15.419Z,22.50
2022-08-22T15:58:50.547Z,22.40
2022-08-22T16:01:26.454Z,22.40
2022-08-22T16:04:06.865Z,22.30
2022-08-22T16:06:54.415Z,22.20
2022-08-22T16:09:44.264Z,22.20
2022-08-22T16:12:37.147Z,22.10
2022-08-22T16:15:28.630Z,22.00
2022-08-22T16:18:01.150Z,21.90
2022-08-22T16:20:29.538Z,21.90
2022-08-22T16:22:57.688Z,21.90
2022-08-22T16:25:47.611Z,21.90
2022-08-22T16:28:56.833Z,21.80
2022-08-22T16:31:42.141Z,21.80
2022-08-22T16:34:22.452Z,21.70
2022-08-22T16:37:12.238Z,22.10
2022-08-22T16:39:41.981Z,22.40
2022-08-22T16:42:16.609Z,22.70
2022-08-22T16:45:05.378Z,22.80
2022-08-22T16:47:33.960Z,23.00
2022-08-22T16:50:17.800Z,23.10
2022-08-22T16:53:09.616Z,23.20
2022-08-22T16:55:50.322Z,23.30
2022-08-22T16:58:29.571Z,23.30
2022-08-22T17:01:23.430Z,23.40
2022-08-22T17:04:20.823Z,23.40
2022-08-22T17:07:07.484Z,23.10
2022-08-22T17:10:02.703Z,22.70
2022-08-22T17:13:01.653Z,22.50
2022-08-22T17:15:29.869Z,22.40
2022-08-22T17:18:11.682Z,22.30
2022-08-22T17:21:00.991Z,22.20
2022-08-22T17:24:01.374Z,22.10
2022-08-22T17:26:35.839Z,22.10
2022-08-22T17:29:22.898Z,22.00
2022-08-22T17:32:09.548Z,21.90
2022-08-22T17:34:51.978Z,22.10
2022-08-22T17:37:38.677Z,22.50
2022-08-22T17:40:26.963Z,22.80
2022-08-22T17:43:10.524Z,23.00
2022-08-22T17:45:55.129Z,23.10
2022-08-22T17:48:41.407Z,23.30
2022-08-22T17:51:32.735Z,23.30
2022-08-22T17:54:29.730Z,23.40
2022-08-22T17:57:33.396Z,23.50
2022-08-22T18:00:29.094Z,23.60
2022-08-22T18:03:16.961Z,23.20
2022-08-22T18:05:59.062Z,22.80
2022-08-22T18:11:42.014Z,22.40
2022-08-22T18:14:36.200Z,22.30
2022-08-22T18:17:22.040Z,22.20
2022-08-22T18:20:06.844Z,22.20
2022-08-22T18:22:40.948Z,22.10
2022-08-22T18:25:26.130Z,22.00
2022-08-22T18:28:00.449Z,22.00
2022-08-22T18:30:50.169Z,21.90
2022-08-22T18:33:34.771Z,21.90
2022-08-22T18:36:13.616Z,21.90
2022-08-22T18:39:23.933Z,22.30
2022-08-22T18:42:25.287Z,22.60
2022-08-22T18:44:53.607Z,22.90
2022-08-22T18:47:29.335Z,23.00
2022-08-22T18:49:58.377Z,23.20
2022-08-22T18:52:26.568Z,23.30
2022-08-22T18:55:25.539Z,23.40
2022-08-22T18:58:25.512Z,23.50
2022-08-22T19:01:15.996Z,23.60
2022-08-22T19:04:09.293Z,23.40
2022-08-22T19:06:51.268Z,23.00
2022-08-22T19:09:25.420Z,22.80
2022-08-22T19:12:23.850Z,22.60
2022-08-22T19:15:10.184Z,22.50
2022-08-22T19:17:41.408Z,22.40
2022-08-22T19:20:21.116Z,22.30
2022-08-22T19:22:55.345Z,22.30
2022-08-22T19:25:26.481Z,22.20
2022-08-22T19:28:22.225Z,22.20
2022-08-22T19:31:32.131Z,22.20
2022-08-22T19:34:20.829Z,22.60
2022-08-22T19:37:32.905Z,22.90
2022-08-22T19:40:07.855Z,23.10
2022-08-22T19:42:41.685Z,23.20
2022-08-22T19:45:21.408Z,23.30
2022-08-22T19:48:10.487Z,23.40
2022-08-22T19:50:42.734Z,23.50
2022-08-22T19:53:33.742Z,23.60
2022-08-22T19:56:23.321Z,23.70
2022-08-22T19:59:11.519Z,23.40
2022-08-22T20:02:18.858Z,23.10
2022-08-22T20:05:20.118Z,22.70
2022-08-22T20:08:33.354Z,22.50
2022-08-22T20:11:34.389Z,22.30
2022-08-22T20:14:30.320Z,22.20
2022-08-22T20:17:08.266Z,22.10
2022-08-22T20:19:42.913Z,22.10
2022-08-22T20:22:37.084Z,22.40
2022-08-22T20:25:17.083Z,22.80
2022-08-22T20:28:04.889Z,23.00
2022-08-22T20:30:40.720Z,23.20
2022-08-22T20:33:12.708Z,23.30
2022-08-22T20:36:02.470Z,23.40
2022-08-22T20:38:38.259Z,23.50
2022-08-22T20:41:11.236Z,23.60
2022-08-22T20:43:44.545Z,23.40
2022-08-22T20:46:46.560Z,23.00
2022-08-22T20:49:23.237Z,22.70
2022-08-22T20:52:09.869Z,22.60
2022-08-22T20:54:41.311Z,22.60
2022-08-22T20:57:18.315Z,22.50
2022-08-22T20:59:58.320Z,22.30
2022-08-22T21:02:58.518Z,22.30
2022-08-22T21:05:34.679Z,22.10
2022-08-22T21:08:06.058Z,22.00
2022-08-22T21:10:37.415Z,22.00
2022-08-22T21:13:23.017Z,22.20
2022-08-22T21:15:58.426Z,22.60
2022-08-22T21:18:42.950Z,22.90
2022-08-22T21:21:25.355Z,23.10
2022-08-22T21:24:00.617Z,23.20
2022-08-22T21:26:34.536Z,23.30
2022-08-22T21:29:05.201Z,23.40
2022-08-22T21:32:04.851Z,23.50
2022-08-22T21:34:45.481Z,23.60
2022-08-22T21:37:35.701Z,23.60
2022-08-22T21:40:14.655Z,23.20
2022-08-22T21:43:04.649Z,22.80
2022-08-22T21:45:39.174Z,22.60
2022-08-22T21:48:40.010Z,22.50
2022-08-22T21:51:25.342Z,22.30
2022-08-22T21:54:25.141Z,22.30
2022-08-22T21:56:56.264Z,22.20
2022-08-22T21:59:50.952Z,22.20
2022-08-22T22:02:39.963Z,22.10
2022-08-22T22:05:18.114Z,22.00
2022-08-22T22:07:48.518Z,21.90
2022-08-22T22:10:20.584Z,21.90
2022-08-22T22:12:50.448Z,21.80
2022-08-22T22:15:23.546Z,21.80
2022-08-22T22:17:52.504Z,22.00
2022-08-22T22:20:23.159Z,22.40
2022-08-22T22:22:52.379Z,22.70
2022-08-22T22:25:40.127Z,22.90
2022-08-22T22:28:15.564Z,23.00
2022-08-22T22:30:45.739Z,23.10
2022-08-22T22:33:13.952Z,23.20
2022-08-22T22:35:42.212Z,23.30
2022-08-22T22:38:10.724Z,23.40
2022-08-22T22:40:39.355Z,23.40
2022-08-22T22:43:08.271Z,23.50
2022-08-22T22:45:37.211Z,23.40
2022-08-22T22:48:06.471Z,23.00
2022-08-22T22:50:35.517Z,22.70
2022-08-22T22:53:03.654Z,22.50
2022-08-22T22:55:32.163Z,22.40
2022-08-22T22:58:01.475Z,22.20
2022-08-22T23:00:33.097Z,22.20
2022-08-22T23:03:04.431Z,22.10
2022-08-22T23:05:34.776Z,22.00
2022-08-22T23:08:05.548Z,22.30
2022-08-22T23:10:34.582Z,22.60
2022-08-22T23:13:03.011Z,22.90
2022-08-22T23:15:31.424Z,23.10
2022-08-22T23:18:00.261Z,23.20
2022-08-22T23:20:28.842Z,23.30
2022-08-22T23:22:57.355Z,23.30
2022-08-22T23:25:25.695Z,23.50
2022-08-22T23:27:54.333Z,23.50
2022-08-22T23:30:23.186Z,23.60
2022-08-22T23:32:51.098Z,23.60
2022-08-22T23:35:19.588Z,23.20
2022-08-22T23:37:47.874Z,22.80
2022-08-22T23:40:16.189Z,22.60
2022-08-22T23:42:44.643Z,22.50
2022-08-22T23:45:12.815Z,22.40
2022-08-22T23:47:41.077Z,22.30
2022-08-22T23:50:09.713Z,22.20
2022-08-22T23:52:37.968Z,22.10
2022-08-22T23:55:06.631Z,22.10
2022-08-22T23:57:34.631Z,22.40
